Time;durP1;ratioP1;P1;durP2;ratioP2;P2;SDS_P1;SDS_P2;PMS_P1;PMS_P2;Temp;Humidity;BMP_temperature;BMP_pressure;BME280_temperature;BME280_humidity;BME280_pressure;Samples;Min_cycle;Max_cycle;Signal;HPM_P1;HPM_P2
2023/04/21 00:00:58;;;;;;;4.28;2.75;;;8.80;99.90;;;;;;5114088;28;20040;-68
2023/04/21 00:03:26;;;;;;;7.78;3.40;;;8.80;99.90;;;;;;5096569;28;20043;-68
2023/04/21 00:05:55;;;;;;;10.68;3.95;;;8.80;99.90;;;;;;5114748;28;20074;-68
2023/04/21 00:08:20;;;;;;;5.45;3.10;;;8.80;99.90;;;;;;5095652;28;20047;-68
2023/04/21 00:10:46;;;;;;;5.70;2.65;;;8.80;99.90;;;;;;5113003;28;20055;-68
2023/04/21 00:13:12;;;;;;;11.23;3.63;;;8.80;99.90;;;;;;5114349;28;20036;-68
2023/04/21 00:15:38;;;;;;;7.15;2.25;;;8.80;99.90;;;;;;5112769;28;20036;-68
2023/04/21 00:18:05;;;;;;;8.02;3.13;;;8.80;99.90;;;;;;5113108;28;20825;-69
2023/04/21 00:20:30;;;;;;;6.00;3.53;;;8.80;99.90;;;;;;5096460;28;20039;-68
2023/04/21 00:22:57;;;;;;;6.70;2.90;;;8.80;99.90;;;;;;5112483;28;20507;-67
2023/04/21 00:25:23;;;;;;;4.88;3.13;;;8.80;99.90;;;;;;5114196;28;20497;-68
2023/04/21 00:27:50;;;;;;;7.45;2.83;;;8.90;99.90;;;;;;5112229;28;20044;-68
2023/04/21 00:30:16;;;;;;;3.85;2.38;;;8.80;99.90;;;;;;5114126;28;20093;-68
2023/04/21 00:32:42;;;;;;;10.40;3.88;;;8.90;99.90;;;;;;5114168;28;20039;-68
2023/04/21 00:35:08;;;;;;;6.78;3.70;;;8.90;99.90;;;;;;5112219;28;20039;-68
2023/04/21 00:37:34;;;;;;;5.53;3.03;;;8.90;99.90;;;;;;5114065;28;20044;-68
2023/04/21 00:40:00;;;;;;;5.97;2.60;;;8.90;99.90;;;;;;5113964;28;20054;-68
2023/04/21 00:42:26;;;;;;;8.40;2.85;;;9.00;99.90;;;;;;5113141;28;20062;-68
2023/04/21 00:44:51;;;;;;;4.88;2.88;;;9.00;99.90;;;;;;5112906;28;20035;-68
2023/04/21 00:47:18;;;;;;;9.07;4.35;;;9.00;99.90;;;;;;5113861;28;20051;-68
2023/04/21 00:49:45;;;;;;;5.93;2.85;;;9.10;99.90;;;;;;5111948;28;20043;-68
2023/04/21 00:52:11;;;;;;;6.47;3.22;;;9.10;99.90;;;;;;5113807;28;20092;-68
2023/04/21 00:54:37;;;;;;;7.18;2.92;;;9.10;99.90;;;;;;5112631;28;20042;-69
2023/04/21 00:57:03;;;;;;;7.53;3.55;;;9.10;99.90;;;;;;5111807;28;20043;-68
2023/04/21 00:59:29;;;;;;;4.63;3.13;;;9.10;99.90;;;;;;5112247;28;20039;-68
2023/04/21 01:01:55;;;;;;;7.28;3.70;;;9.10;99.90;;;;;;5112272;28;20469;-68
2023/04/21 01:04:21;;;;;;;6.03;3.28;;;9.10;99.90;;;;;;5111731;28;20039;-68
2023/04/21 01:06:47;;;;;;;5.43;2.58;;;9.10;99.90;;;;;;5112199;28;20077;-68
2023/04/21 01:09:13;;;;;;;3.80;1.73;;;9.10;99.90;;;;;;5111104;28;20036;-69
2023/04/21 01:11:39;;;;;;;4.68;2.35;;;9.10;99.90;;;;;;5111236;28;20390;-68
2023/04/21 01:14:06;;;;;;;5.85;2.58;;;9.10;99.90;;;;;;5113594;28;20043;-68
2023/04/21 01:16:32;;;;;;;4.25;2.67;;;9.10;99.90;;;;;;5112017;28;20515;-70
2023/04/21 01:18:59;;;;;;;7.45;3.60;;;9.10;99.90;;;;;;5112228;28;20484;-68
2023/04/21 01:21:27;;;;;;;9.05;4.25;;;9.00;99.90;;;;;;5111940;28;20093;-69
2023/04/21 01:23:53;;;;;;;6.38;2.83;;;9.00;99.90;;;;;;5112595;28;20035;-68
2023/04/21 01:26:21;;;;;;;3.58;2.20;;;9.00;99.90;;;;;;5112897;28;20043;-67
2023/04/21 01:28:47;;;;;;;4.72;2.90;;;9.00;99.90;;;;;;5111743;28;20075;-69
2023/04/21 01:31:14;;;;;;;5.80;2.65;;;9.00;99.90;;;;;;5111138;28;20051;-68
2023/04/21 01:33:41;;;;;;;6.15;2.85;;;8.90;99.90;;;;;;5112001;28;20593;-68
2023/04/21 01:36:08;;;;;;;5.05;2.88;;;8.90;99.90;;;;;;5111843;28;20035;-68
2023/04/21 01:38:38;;;;;;;6.03;2.70;;;8.90;99.90;;;;;;5111003;28;20131;-69
2023/04/21 01:41:03;;;;;;;4.65;2.75;;;8.90;99.90;;;;;;5113176;28;20047;-69
2023/04/21 01:43:29;;;;;;;8.32;2.65;;;8.80;99.90;;;;;;5112672;28;20134;-68
2023/04/21 01:45:55;;;;;;;3.08;1.92;;;8.80;99.90;;;;;;5094038;28;20051;-68
2023/04/21 01:48:21;;;;;;;4.80;2.35;;;8.80;99.90;;;;;;5112684;28;20493;-68
2023/04/21 01:50:47;;;;;;;4.78;2.88;;;8.80;99.90;;;;;;5112632;28;20039;-68
2023/04/21 01:53:12;;;;;;;8.88;2.88;;;8.80;99.90;;;;;;5111885;28;20032;-69
2023/04/21 01:55:38;;;;;;;7.13;2.95;;;8.80;99.90;;;;;;5112741;28;20047;-68
2023/04/21 01:58:04;;;;;;;4.45;2.33;;;8.80;99.90;;;;;;5111447;28;20489;-70
2023/04/21 02:00:30;;;;;;;4.57;2.38;;;8.80;99.90;;;;;;5093575;28;20370;-68
2023/04/21 02:02:55;;;;;;;9.05;2.70;;;8.80;99.90;;;;;;5094218;28;20038;-69
2023/04/21 02:05:21;;;;;;;5.50;2.30;;;8.80;99.90;;;;;;5094295;28;20047;-69
2023/04/21 02:07:47;;;;;;;5.70;2.53;;;8.70;99.90;;;;;;5110255;28;20071;-68
2023/04/21 02:10:13;;;;;;;4.05;3.15;;;8.70;99.90;;;;;;5110855;28;20055;-69
2023/04/21 02:12:39;;;;;;;3.83;2.25;;;8.70;99.90;;;;;;5110585;28;20039;-68
2023/04/21 02:15:05;;;;;;;6.88;3.58;;;8.70;99.90;;;;;;5112126;27;20040;-68
2023/04/21 02:17:31;;;;;;;5.65;2.33;;;8.70;99.90;;;;;;5110716;28;20547;-68
2023/04/21 02:19:57;;;;;;;3.63;2.30;;;8.80;99.90;;;;;;5110020;28;20123;-68
2023/04/21 02:22:23;;;;;;;4.20;2.67;;;8.70;99.90;;;;;;5093640;28;20043;-68
2023/04/21 02:24:49;;;;;;;3.83;2.03;;;8.80;99.90;;;;;;5111940;28;20051;-69
2023/04/21 02:27:15;;;;;;;6.80;2.85;;;8.70;99.90;;;;;;5111395;28;20039;-70
2023/04/21 02:29:41;;;;;;;5.22;2.65;;;8.80;99.90;;;;;;5110601;28;20042;-68
2023/04/21 02:32:07;;;;;;;9.52;2.97;;;8.70;99.90;;;;;;5111974;28;20043;-69
2023/04/21 02:34:32;;;;;;;4.30;2.28;;;8.80;99.90;;;;;;5109862;28;20512;-68
2023/04/21 02:36:58;;;;;;;5.20;2.47;;;8.70;99.90;;;;;;5110707;28;20126;-68
2023/04/21 02:39:24;;;;;;;6.47;3.20;;;8.80;99.90;;;;;;5110284;28;20043;-68
2023/04/21 02:41:50;;;;;;;2.85;1.88;;;8.80;99.90;;;;;;5109835;28;20040;-70
2023/04/21 02:44:16;;;;;;;4.13;2.45;;;8.70;99.90;;;;;;5110737;28;20040;-69
2023/04/21 02:46:42;;;;;;;2.58;2.00;;;8.70;99.90;;;;;;5111569;28;20052;-68
2023/04/21 02:49:09;;;;;;;7.47;2.90;;;8.70;99.90;;;;;;5109789;28;20028;-68
2023/04/21 02:51:35;;;;;;;3.83;2.13;;;8.70;99.90;;;;;;5111371;28;20040;-68
2023/04/21 02:54:01;;;;;;;6.65;3.63;;;8.70;99.90;;;;;;5110069;28;20069;-68
2023/04/21 02:56:27;;;;;;;3.45;1.95;;;8.70;99.90;;;;;;5111031;28;20372;-68
2023/04/21 02:58:53;;;;;;;2.72;2.15;;;8.70;99.90;;;;;;5111372;28;20122;-68
2023/04/21 03:01:19;;;;;;;3.78;2.03;;;8.70;99.90;;;;;;5111430;28;20035;-68
2023/04/21 03:03:45;;;;;;;4.95;2.25;;;8.70;99.90;;;;;;5110710;28;20043;-68
2023/04/21 03:06:11;;;;;;;3.92;2.17;;;8.80;99.90;;;;;;5092835;28;20488;-69
2023/04/21 03:08:36;;;;;;;3.15;2.30;;;8.80;99.90;;;;;;5109173;28;20035;-69
2023/04/21 03:11:02;;;;;;;4.45;2.58;;;8.80;99.90;;;;;;5111122;28;20052;-69
2023/04/21 03:13:28;;;;;;;5.65;3.13;;;8.80;99.90;;;;;;5111140;28;20040;-68
2023/04/21 03:15:54;;;;;;;4.90;2.33;;;8.80;99.90;;;;;;5109488;28;20032;-68
2023/04/21 03:18:20;;;;;;;2.65;2.42;;;8.80;99.90;;;;;;5111044;28;20043;-68
2023/04/21 03:20:46;;;;;;;2.17;1.50;;;8.80;99.90;;;;;;5092664;28;20045;-68
2023/04/21 03:23:11;;;;;;;5.93;3.22;;;8.80;99.90;;;;;;5109145;28;20043;-68
2023/04/21 03:25:38;;;;;;;8.40;2.55;;;8.80;99.90;;;;;;5109940;28;20039;-68
2023/04/21 03:28:04;;;;;;;4.55;2.63;;;8.90;99.90;;;;;;5092665;28;20039;-68
2023/04/21 03:30:30;;;;;;;5.32;3.38;;;8.90;99.90;;;;;;5110331;28;20048;-68
2023/04/21 03:32:55;;;;;;;3.42;1.85;;;8.90;99.90;;;;;;5108890;28;20097;-70
2023/04/21 03:35:21;;;;;;;4.00;1.83;;;8.90;99.90;;;;;;5109873;28;20042;-70
2023/04/21 03:37:50;;;;;;;3.90;2.38;;;8.90;99.90;;;;;;5109172;28;20477;-68
2023/04/21 03:40:16;;;;;;;4.68;2.30;;;8.90;99.90;;;;;;5110894;28;20075;-69
2023/04/21 03:42:42;;;;;;;7.20;3.72;;;9.00;99.90;;;;;;5109472;28;20081;-68
2023/04/21 03:45:09;;;;;;;4.05;2.55;;;8.90;99.90;;;;;;5109193;28;20043;-69
2023/04/21 03:47:35;;;;;;;3.88;2.33;;;8.90;99.90;;;;;;5092659;28;20274;-69
2023/04/21 03:50:04;;;;;;;7.10;2.78;;;9.00;99.90;;;;;;5092739;28;20084;-68
2023/04/21 03:52:31;;;;;;;3.85;1.58;;;9.00;99.90;;;;;;5092208;28;20039;-68
2023/04/21 03:54:57;;;;;;;3.15;1.80;;;9.00;99.90;;;;;;5109488;28;20052;-70
2023/04/21 03:57:23;;;;;;;3.83;2.33;;;9.00;99.90;;;;;;5109285;28;20039;-68
2023/04/21 03:59:48;;;;;;;4.35;2.67;;;9.00;99.90;;;;;;5108982;28;20047;-69
2023/04/21 04:02:14;;;;;;;3.78;1.85;;;9.00;99.90;;;;;;5110649;28;20084;-69
2023/04/21 04:04:40;;;;;;;2.90;1.75;;;9.00;99.90;;;;;;5109974;28;20040;-68
2023/04/21 04:07:07;;;;;;;5.30;2.22;;;9.00;99.90;;;;;;5110651;28;20031;-69
2023/04/21 04:09:33;;;;;;;3.88;2.08;;;9.10;99.90;;;;;;5110376;28;20462;-68
2023/04/21 04:11:59;;;;;;;4.10;2.33;;;9.00;99.90;;;;;;5110155;28;20104;-69
2023/04/21 04:14:25;;;;;;;3.47;1.90;;;9.00;99.90;;;;;;5109241;28;20042;-68
2023/04/21 04:16:50;;;;;;;4.10;2.35;;;9.00;99.90;;;;;;5109521;28;20039;-68
2023/04/21 04:19:16;;;;;;;5.30;3.15;;;9.00;99.90;;;;;;5108772;28;20047;-69
2023/04/21 04:21:42;;;;;;;7.50;2.95;;;9.00;99.90;;;;;;5109421;28;20075;-69
2023/04/21 04:24:09;;;;;;;4.78;2.60;;;9.00;99.90;;;;;;5109385;28;20503;-70
2023/04/21 04:26:37;;;;;;;7.60;2.38;;;9.00;99.90;;;;;;5108727;28;20043;-68
2023/04/21 04:29:04;;;;;;;3.88;2.17;;;9.00;99.90;;;;;;5109129;28;20044;-69
2023/04/21 04:31:31;;;;;;;2.38;1.63;;;9.00;99.90;;;;;;5092271;28;20122;-69
2023/04/21 04:33:57;;;;;;;5.63;3.20;;;8.90;99.90;;;;;;5109906;28;20040;-69
2023/04/21 04:36:23;;;;;;;3.30;1.60;;;8.90;99.90;;;;;;5110562;28;20115;-69
2023/04/21 04:38:50;;;;;;;4.25;2.35;;;8.90;99.90;;;;;;5109134;28;20117;-69
2023/04/21 04:41:15;;;;;;;5.93;2.50;;;8.90;99.90;;;;;;5108517;28;20075;-69
2023/04/21 04:43:42;;;;;;;3.95;2.88;;;8.90;99.90;;;;;;5110423;28;20067;-69
2023/04/21 04:46:11;;;;;;;4.63;2.85;;;8.80;99.90;;;;;;5112534;28;20504;-69
2023/04/21 04:48:37;;;;;;;4.18;3.03;;;8.80;99.90;;;;;;5111861;28;20096;-68
2023/04/21 04:51:03;;;;;;;9.20;2.70;;;8.80;99.90;;;;;;5113946;28;20042;-69
2023/04/21 04:53:29;;;;;;;8.13;3.10;;;8.80;99.90;;;;;;5112743;28;20090;-69
2023/04/21 04:55:57;;;;;;;4.57;2.58;;;8.70;99.90;;;;;;5112120;28;20446;-68
2023/04/21 04:58:23;;;;;;;6.82;2.53;;;8.70;99.90;;;;;;5113806;27;20039;-69
2023/04/21 05:00:49;;;;;;;6.78;2.60;;;8.80;99.90;;;;;;5111579;28;20496;-69
2023/04/21 05:03:15;;;;;;;6.65;2.03;;;8.70;99.90;;;;;;5112178;28;20478;-69
2023/04/21 05:05:41;;;;;;;4.32;2.38;;;8.70;99.90;;;;;;5112216;28;20040;-68
2023/04/21 05:08:07;;;;;;;5.65;2.45;;;8.70;99.90;;;;;;5112871;28;20043;-69
2023/04/21 05:10:33;;;;;;;6.22;2.25;;;8.70;99.90;;;;;;5095204;28;20554;-69
2023/04/21 05:12:59;;;;;;;4.68;2.45;;;8.80;99.90;;;;;;5112140;28;20075;-68
2023/04/21 05:15:25;;;;;;;3.83;2.72;;;8.70;99.90;;;;;;5094470;28;20082;-68
2023/04/21 05:17:51;;;;;;;4.28;1.90;;;8.70;99.90;;;;;;5111879;28;20054;-69
2023/04/21 05:20:16;;;;;;;5.63;3.33;;;8.80;99.90;;;;;;5111704;28;20043;-69
2023/04/21 05:22:42;;;;;;;3.13;2.15;;;8.80;99.90;;;;;;5111079;28;20051;-69
2023/04/21 05:25:13;;;;;;;7.47;2.70;;;8.90;99.90;;;;;;5111134;28;20047;-70
2023/04/21 05:27:39;;;;;;;4.53;2.45;;;8.90;99.90;;;;;;5110512;28;20054;-70
2023/04/21 05:30:06;;;;;;;2.20;1.77;;;8.90;99.90;;;;;;5109883;28;20035;-70
2023/04/21 05:32:32;;;;;;;3.33;2.33;;;9.00;99.90;;;;;;5110313;28;20519;-68
2023/04/21 05:34:59;;;;;;;5.35;2.97;;;9.00;99.90;;;;;;5110311;28;20039;-69
2023/04/21 05:37:25;;;;;;;6.45;3.47;;;9.10;99.90;;;;;;5110027;28;20047;-69
2023/04/21 05:39:51;;;;;;;4.05;2.45;;;9.10;99.90;;;;;;5111576;28;20039;-68
2023/04/21 05:42:17;;;;;;;8.30;3.65;;;9.20;99.90;;;;;;5111526;28;20031;-70
2023/04/21 05:44:43;;;;;;;3.95;2.53;;;9.20;99.90;;;;;;5091195;28;20119;-69
2023/04/21 05:47:08;;;;;;;4.55;3.00;;;9.30;99.90;;;;;;5090282;28;20040;-69
2023/04/21 05:49:34;;;;;;;3.30;1.75;;;9.30;99.90;;;;;;5090449;28;20371;-69
2023/04/21 05:52:00;;;;;;;9.32;2.75;;;9.40;99.90;;;;;;5089800;28;20093;-68
2023/04/21 05:54:26;;;;;;;6.65;2.75;;;9.50;99.90;;;;;;5090859;28;20040;-68
2023/04/21 05:56:51;;;;;;;5.20;2.50;;;9.50;99.90;;;;;;5089744;28;20494;-69
2023/04/21 05:59:17;;;;;;;4.22;3.50;;;9.60;99.90;;;;;;5090663;28;20077;-69
2023/04/21 06:01:43;;;;;;;2.50;1.80;;;9.70;99.90;;;;;;5090977;28;20514;-69
2023/04/21 06:04:09;;;;;;;4.88;2.70;;;9.70;99.90;;;;;;5088772;28;20126;-69
2023/04/21 06:06:35;;;;;;;3.97;3.00;;;9.70;99.90;;;;;;5089306;28;20129;-69
2023/04/21 06:09:01;;;;;;;3.03;1.80;;;9.70;99.90;;;;;;5089482;28;20044;-69
2023/04/21 06:11:27;;;;;;;3.75;2.58;;;9.80;99.90;;;;;;5089988;28;20060;-69
2023/04/21 06:13:57;;;;;;;5.32;3.10;;;10.00;99.90;;;;;;5089405;28;20058;-69
2023/04/21 06:16:22;;;;;;;2.70;1.83;;;10.20;99.90;;;;;;5089379;28;20481;-69
2023/04/21 06:18:48;;;;;;;5.57;2.88;;;10.50;99.90;;;;;;5088714;28;20050;-68
2023/04/21 06:21:14;;;;;;;4.95;2.65;;;10.70;99.90;;;;;;5072397;28;20079;-68
2023/04/21 06:23:41;;;;;;;5.53;3.15;;;10.80;99.90;;;;;;5072695;28;20436;-69
2023/04/21 06:26:08;;;;;;;5.82;2.90;;;11.00;99.90;;;;;;5088493;28;20067;-68
2023/04/21 06:28:35;;;;;;;6.65;2.72;;;11.20;99.90;;;;;;5090617;28;20125;-69
2023/04/21 06:31:02;;;;;;;4.85;3.28;;;11.30;99.90;;;;;;5089153;28;20068;-69
2023/04/21 06:33:28;;;;;;;5.38;2.80;;;11.40;99.90;;;;;;5088764;28;20040;-69
2023/04/21 06:35:54;;;;;;;2.85;1.90;;;11.30;99.90;;;;;;5072824;28;20101;-70
2023/04/21 06:38:21;;;;;;;7.78;3.20;;;11.20;99.90;;;;;;5089090;28;20073;-70
2023/04/21 06:40:46;;;;;;;6.75;3.22;;;11.10;99.90;;;;;;5088518;28;20044;-70
2023/04/21 06:43:12;;;;;;;3.88;2.25;;;11.00;99.90;;;;;;5088734;28;20503;-69
2023/04/21 06:45:38;;;;;;;3.15;1.70;;;11.00;99.90;;;;;;5088308;28;20040;-69
2023/04/21 06:48:04;;;;;;;5.82;2.83;;;11.00;99.90;;;;;;5089959;28;20036;-68
2023/04/21 06:50:30;;;;;;;7.90;2.65;;;10.90;99.90;;;;;;5088811;28;20075;-70
2023/04/21 06:52:56;;;;;;;6.80;2.63;;;11.00;99.90;;;;;;5089359;28;20067;-69
2023/04/21 06:55:22;;;;;;;3.00;1.88;;;11.20;99.90;;;;;;5088635;28;20048;-68
2023/04/21 06:57:47;;;;;;;6.05;2.50;;;11.30;99.90;;;;;;5090171;28;20032;-69
2023/04/21 07:00:14;;;;;;;3.90;2.15;;;11.50;99.90;;;;;;5088246;28;20051;-69
2023/04/21 07:02:40;;;;;;;4.45;2.70;;;11.60;99.90;;;;;;5088614;28;20088;-69
2023/04/21 07:05:06;;;;;;;4.13;2.40;;;11.80;99.90;;;;;;5089780;28;20044;-69
2023/04/21 07:07:32;;;;;;;5.25;2.13;;;11.80;99.90;;;;;;5087016;28;20126;-69
2023/04/21 07:09:58;;;;;;;5.60;2.70;;;11.80;99.90;;;;;;5071431;28;20052;-71
2023/04/21 07:12:24;;;;;;;4.10;2.63;;;11.70;99.90;;;;;;5088359;28;20039;-68
2023/04/21 07:14:50;;;;;;;3.35;2.38;;;11.60;99.90;;;;;;5089225;28;20043;-68
2023/04/21 07:17:15;;;;;;;3.88;2.25;;;11.50;99.90;;;;;;5089835;28;20040;-68
2023/04/21 07:19:41;;;;;;;4.20;2.00;;;11.40;99.90;;;;;;5088503;28;20059;-69
2023/04/21 07:22:07;;;;;;;2.92;2.03;;;11.40;99.90;;;;;;5087866;28;20401;-69
2023/04/21 07:24:34;;;;;;;3.35;2.08;;;11.40;99.90;;;;;;5088255;28;20525;-68
2023/04/21 07:27:01;;;;;;;4.03;2.15;;;11.30;99.90;;;;;;5088418;28;20036;-68
2023/04/21 07:29:27;;;;;;;3.58;1.98;;;11.30;99.90;;;;;;5087687;28;20039;-70
2023/04/21 07:31:54;;;;;;;5.70;2.38;;;11.30;99.90;;;;;;5088505;28;20035;-69
2023/04/21 07:34:20;;;;;;;4.72;2.45;;;11.40;99.90;;;;;;5088507;28;20405;-70
2023/04/21 07:36:45;;;;;;;3.67;2.08;;;11.40;99.90;;;;;;5088829;28;20107;-70
2023/04/21 07:39:11;;;;;;;3.65;1.98;;;11.50;99.90;;;;;;5088067;28;20040;-70
2023/04/21 07:41:37;;;;;;;4.65;2.25;;;11.50;99.90;;;;;;5087489;28;20072;-68
2023/04/21 07:44:03;;;;;;;5.85;2.38;;;11.60;99.90;;;;;;5089518;28;20075;-70
2023/04/21 07:46:30;;;;;;;4.18;2.63;;;11.60;99.90;;;;;;5089454;28;20059;-69
2023/04/21 07:48:59;;;;;;;4.00;2.33;;;11.60;99.90;;;;;;5087406;28;20056;-70
2023/04/21 07:51:26;;;;;;;3.13;2.25;;;11.70;99.90;;;;;;5088328;28;20180;-69
2023/04/21 07:53:52;;;;;;;3.47;1.95;;;11.70;99.90;;;;;;5089139;28;20044;-68
2023/04/21 07:56:18;;;;;;;4.43;1.90;;;11.80;99.90;;;;;;5088836;28;20403;-68
2023/04/21 07:58:44;;;;;;;4.53;2.00;;;11.90;99.90;;;;;;5089158;28;20039;-69
2023/04/21 08:01:10;;;;;;;2.80;1.55;;;11.90;99.90;;;;;;5089295;28;20047;-70
2023/04/21 08:03:36;;;;;;;3.92;2.20;;;12.00;99.90;;;;;;5088619;28;20046;-70
2023/04/21 08:06:02;;;;;;;6.10;2.42;;;12.00;99.90;;;;;;5089125;28;20032;-69
2023/04/21 08:08:28;;;;;;;3.58;2.22;;;12.00;99.90;;;;;;5070906;28;20041;-70
2023/04/21 08:10:54;;;;;;;3.03;2.13;;;12.10;99.90;;;;;;5087192;28;20063;-69
2023/04/21 08:13:24;;;;;;;3.72;2.67;;;12.20;99.90;;;;;;5089258;28;20406;-70
2023/04/21 08:15:53;;;;;;;2.42;1.88;;;12.20;99.90;;;;;;5087853;28;20048;-70
2023/04/21 08:18:20;;;;;;;8.40;1.80;;;12.40;99.90;;;;;;5089328;28;20127;-69
2023/04/21 08:20:49;;;;;;;5.45;2.78;;;12.40;99.90;;;;;;5074941;28;20040;-69
2023/04/21 08:23:15;;;;;;;11.20;2.73;;;12.50;99.90;;;;;;5091896;28;20402;-69
2023/04/21 08:25:41;;;;;;;3.92;2.65;;;12.60;99.90;;;;;;5090973;28;20043;-70
2023/04/21 08:28:06;;;;;;;5.93;2.38;;;12.60;99.90;;;;;;5092846;28;20036;-68
2023/04/21 08:30:32;;;;;;;7.10;2.97;;;12.70;99.90;;;;;;5090930;28;20552;-69
2023/04/21 08:32:58;;;;;;;5.50;2.05;;;12.80;99.90;;;;;;5091430;28;20044;-70
2023/04/21 08:35:24;;;;;;;5.00;1.63;;;13.00;99.90;;;;;;5092592;28;20161;-69
2023/04/21 08:37:50;;;;;;;2.88;2.05;;;13.10;99.90;;;;;;5091026;28;20504;-71
2023/04/21 08:40:17;;;;;;;5.40;3.15;;;13.20;99.90;;;;;;5091247;28;20051;-70
2023/04/21 08:42:43;;;;;;;7.95;2.97;;;13.30;99.90;;;;;;5091397;28;20058;-69
2023/04/21 08:45:09;;;;;;;5.47;3.22;;;13.50;99.90;;;;;;5091783;28;20505;-69
2023/04/21 08:47:37;;;;;;;5.22;3.20;;;13.70;99.90;;;;;;5091103;28;20509;-68
2023/04/21 08:50:04;;;;;;;6.22;3.30;;;13.80;99.90;;;;;;5091473;28;20456;-71
2023/04/21 08:52:30;;;;;;;5.13;2.75;;;13.90;99.90;;;;;;5090453;28;20044;-70
2023/04/21 08:54:56;;;;;;;6.05;2.17;;;14.00;99.90;;;;;;5091235;28;20112;-70
2023/04/21 08:57:22;;;;;;;4.47;2.63;;;14.30;99.90;;;;;;5074370;28;20075;-70
2023/04/21 08:59:48;;;;;;;7.32;2.70;;;14.50;99.90;;;;;;5090538;28;20509;-70
2023/04/21 09:02:15;;;;;;;6.20;2.75;;;15.00;99.90;;;;;;5090820;28;20040;-71
2023/04/21 09:04:44;;;;;;;4.00;2.10;;;15.40;99.90;;;;;;5090959;28;20036;-70
2023/04/21 09:07:10;;;;;;;4.50;2.95;;;15.90;99.90;;;;;;5073303;28;20044;-70
2023/04/21 09:09:55;;;;;;;5.78;3.08;;;16.50;99.90;;;;;;5090771;28;20085;-70
2023/04/21 09:12:22;;;;;;;2.92;1.65;;;16.80;99.90;;;;;;5092048;28;20040;-68
2023/04/21 09:14:49;;;;;;;6.30;2.63;;;17.00;99.90;;;;;;5090021;28;20032;-71
2023/04/21 09:17:16;;;;;;;5.20;3.08;;;17.00;99.90;;;;;;5091850;28;20044;-70
2023/04/21 09:19:43;;;;;;;5.65;3.25;;;17.00;99.90;;;;;;5073342;28;20439;-69
2023/04/21 09:22:13;;;;;;;11.13;2.72;;;17.00;99.90;;;;;;5091695;28;20104;-70
2023/04/21 09:25:04;;;;;;;4.55;3.15;;;17.00;99.90;;;;;;5091670;28;20083;-69
2023/04/21 09:27:30;;;;;;;5.75;2.33;;;16.90;99.90;;;;;;5088945;28;20063;-69
2023/04/21 09:30:06;;;;;;;6.65;2.83;;;16.90;99.90;;;;;;5089314;28;20036;-70
2023/04/21 09:32:39;;;;;;;3.60;2.33;;;17.10;99.90;;;;;;5091765;28;20402;-71
2023/04/21 09:35:14;;;;;;;4.35;2.55;;;17.40;99.90;;;;;;5072728;28;20047;-70
2023/04/21 09:37:43;;;;;;;4.30;2.92;;;18.00;99.90;;;;;;5091424;28;20127;-68
2023/04/21 09:40:16;;;;;;;5.15;2.65;;;18.40;99.90;;;;;;5090296;28;20040;-68
2023/04/21 09:42:42;;;;;;;6.53;3.30;;;18.50;99.90;;;;;;5089512;28;20078;-71
2023/04/21 09:45:09;;;;;;;8.32;2.80;;;18.20;99.90;;;;;;5091163;28;20083;-71
2023/04/21 09:47:39;;;;;;;7.88;2.72;;;17.80;99.90;;;;;;5089503;28;20047;-71
2023/04/21 09:50:08;;;;;;;4.25;2.33;;;17.50;99.90;;;;;;5089942;28;20119;-70
2023/04/21 09:52:36;;;;;;;4.60;2.42;;;17.30;99.90;;;;;;5090063;28;20039;-69
2023/04/21 09:55:05;;;;;;;5.75;3.13;;;17.30;99.90;;;;;;5089227;28;20040;-71
2023/04/21 09:57:34;;;;;;;5.55;2.67;;;17.60;99.90;;;;;;5091172;28;20044;-70
2023/04/21 10:00:04;;;;;;;6.22;2.55;;;18.20;99.90;;;;;;5089725;28;20055;-69
2023/04/21 10:02:33;;;;;;;5.20;3.08;;;18.70;99.90;;;;;;5055879;28;20499;-70
2023/04/21 10:04:59;;;;;;;5.20;2.92;;;19.00;99.90;;;;;;5089910;28;20047;-70
2023/04/21 10:07:25;;;;;;;8.82;3.10;;;19.20;99.90;;;;;;5089662;28;20084;-71
2023/04/21 10:09:54;;;;;;;3.05;1.55;;;19.10;99.90;;;;;;5089011;28;20059;-69
2023/04/21 10:12:21;;;;;;;3.83;2.45;;;19.10;99.90;;;;;;5072622;28;20043;-70
2023/04/21 10:14:55;;;;;;;6.70;2.40;;;19.20;99.90;;;;;;5090855;28;20028;-69
2023/04/21 10:17:25;;;;;;;5.63;2.85;;;19.30;99.90;;;;;;5089069;28;20524;-68
2023/04/21 10:19:57;;;;;;;4.50;3.30;;;19.40;99.90;;;;;;5072744;28;20375;-70
2023/04/21 10:22:30;;;;;;;5.55;2.40;;;18.90;99.90;;;;;;5089390;28;20040;-70
2023/04/21 10:24:58;;;;;;;4.38;2.38;;;18.50;99.90;;;;;;5071816;28;20497;-69
2023/04/21 10:27:42;;;;;;;5.47;2.80;;;18.30;99.90;;;;;;5072520;28;20122;-70
2023/04/21 10:30:22;;;;;;;4.10;2.33;;;18.50;99.90;;;;;;5089788;28;20039;-71
2023/04/21 10:32:48;;;;;;;5.68;2.60;;;18.80;99.90;;;;;;5072287;28;20039;-70
2023/04/21 10:35:20;;;;;;;6.13;2.42;;;18.80;99.90;;;;;;5089084;28;20047;-70
2023/04/21 10:37:49;;;;;;;4.00;3.00;;;18.50;99.90;;;;;;5088363;28;20123;-70
2023/04/21 10:40:30;;;;;;;4.87;2.60;;;18.20;99.90;;;;;;5071994;28;20051;-69
2023/04/21 10:42:55;;;;;;;4.10;2.35;;;17.70;99.90;;;;;;5088752;28;20040;-71
2023/04/21 10:45:24;;;;;;;4.68;2.67;;;17.50;99.90;;;;;;5088526;28;20048;-69
2023/04/21 10:47:52;;;;;;;4.93;2.73;;;17.40;99.90;;;;;;5088797;28;20489;-71
2023/04/21 10:50:21;;;;;;;5.50;2.95;;;17.50;99.90;;;;;;5088989;28;20064;-70
2023/04/21 10:52:52;;;;;;;;;;;17.60;99.90;;;;;;5089866;28;20044;-71
2023/04/21 10:55:19;;;;;;;4.78;2.38;;;17.60;99.90;;;;;;5089989;28;20024;-69
2023/04/21 10:57:45;;;;;;;4.40;2.05;;;17.50;99.90;;;;;;5071235;28;20036;-69
2023/04/21 11:00:20;;;;;;;3.35;2.25;;;17.40;99.90;;;;;;5088650;28;20050;-71
2023/04/21 11:03:01;;;;;;;6.18;2.72;;;17.40;99.90;;;;;;5072118;28;20047;-71
2023/04/21 11:05:28;;;;;;;3.78;1.95;;;17.40;99.90;;;;;;5087948;28;20561;-71
2023/04/21 11:08:14;;;;;;;5.38;2.75;;;17.40;99.90;;;;;;5088593;28;20062;-71
2023/04/21 11:11:09;;;;;;;4.60;2.30;;;17.30;99.90;;;;;;5088308;28;20095;-71
2023/04/21 11:13:35;;;;;;;2.80;1.73;;;17.30;99.90;;;;;;5066408;28;20498;-69
2023/04/21 11:16:07;;;;;;;6.15;2.85;;;17.10;99.90;;;;;;5089607;28;20043;-70
2023/04/21 11:18:43;;;;;;;4.55;2.70;;;17.10;99.90;;;;;;5089179;28;20028;-70
2023/04/21 11:21:10;;;;;;;4.57;2.75;;;17.10;99.90;;;;;;5088391;28;20044;-70
2023/04/21 11:23:40;;;;;;;4.07;2.45;;;17.20;99.90;;;;;;5088296;28;20039;-71
2023/04/21 11:26:06;;;;;;;4.97;2.58;;;17.40;99.90;;;;;;5087875;28;20509;-71
2023/04/21 11:28:31;;;;;;;5.20;2.85;;;17.60;99.90;;;;;;5089363;28;20043;-70
2023/04/21 11:30:58;;;;;;;3.75;2.78;;;17.70;99.90;;;;;;5088212;28;20224;-69
2023/04/21 11:33:26;;;;;;;5.00;2.90;;;17.80;99.90;;;;;;5089076;28;20119;-71
2023/04/21 11:35:57;;;;;;;4.40;2.30;;;17.80;99.90;;;;;;5088429;28;20032;-69
2023/04/21 11:38:24;;;;;;;4.25;2.50;;;17.80;99.90;;;;;;5088210;28;20079;-70
2023/04/21 11:40:50;;;;;;;6.18;2.40;;;17.70;99.90;;;;;;5087447;28;20047;-70
2023/04/21 11:43:16;;;;;;;6.38;2.65;;;17.70;99.90;;;;;;5088079;28;20043;-70
2023/04/21 11:45:42;;;;;;;4.50;3.05;;;17.70;99.90;;;;;;5071478;28;20058;-70
2023/04/21 11:48:18;;;;;;;4.88;2.30;;;17.90;99.90;;;;;;5088790;28;20135;-69
2023/04/21 11:50:50;;;;;;;7.72;3.22;;;18.10;99.90;;;;;;5089206;28;20119;-70
2023/04/21 11:53:16;;;;;;;4.65;2.65;;;18.20;99.90;;;;;;5072166;28;20396;-70
2023/04/21 11:55:45;;;;;;;7.70;2.70;;;18.30;99.90;;;;;;5091897;28;20038;-71
2023/04/21 11:58:14;;;;;;;5.63;2.47;;;18.30;99.90;;;;;;5093367;28;20525;-71
2023/04/21 12:00:44;;;;;;;3.95;2.30;;;18.30;99.90;;;;;;5091494;28;20054;-70
2023/04/21 12:03:12;;;;;;;6.00;2.65;;;18.30;99.90;;;;;;5075073;28;20135;-70
2023/04/21 12:05:38;;;;;;;4.90;2.90;;;18.20;99.90;;;;;;5092063;28;20040;-70
2023/04/21 12:08:07;;;;;;;7.65;2.50;;;18.10;99.90;;;;;;5092451;28;20044;-71
2023/04/21 12:10:33;;;;;;;4.20;2.40;;;18.00;99.90;;;;;;5093130;28;20052;-71
2023/04/21 12:12:59;;;;;;;4.93;2.75;;;17.90;99.90;;;;;;5092084;28;20071;-71
2023/04/21 12:15:25;;;;;;;6.72;2.72;;;18.00;99.90;;;;;;5092579;28;20040;-70
2023/04/21 12:17:53;;;;;;;4.18;2.58;;;18.00;99.90;;;;;;5075115;28;20043;-71
2023/04/21 12:20:20;;;;;;;7.40;2.75;;;18.00;99.90;;;;;;5091819;28;20126;-68
2023/04/21 12:22:47;;;;;;;8.77;2.78;;;18.10;99.90;;;;;;5092252;28;20052;-70
2023/04/21 12:25:14;;;;;;;5.00;2.72;;;18.20;99.90;;;;;;5091782;28;20043;-69
2023/04/21 12:27:56;;;;;;;7.63;3.28;;;18.30;99.90;;;;;;5074512;28;20552;-69
2023/04/21 12:30:22;;;;;;;6.32;3.50;;;18.60;99.90;;;;;;5074018;28;20489;-70
2023/04/21 12:32:48;;;;;;;5.60;2.60;;;19.00;99.90;;;;;;5091353;28;20040;-69
2023/04/21 12:35:14;;;;;;;6.45;3.10;;;19.30;99.90;;;;;;5091745;28;20228;-70
2023/04/21 12:37:39;;;;;;;5.25;2.90;;;19.30;99.90;;;;;;5092138;28;20172;-70
2023/04/21 12:40:06;;;;;;;4.68;2.78;;;19.20;99.90;;;;;;5091285;28;20043;-68
2023/04/21 12:42:32;;;;;;;4.80;2.50;;;19.10;99.90;;;;;;5074032;28;20036;-69
2023/04/21 12:44:58;;;;;;;4.85;2.60;;;19.00;99.90;;;;;;5091237;28;20040;-69
2023/04/21 12:47:24;;;;;;;5.65;3.28;;;18.80;99.90;;;;;;5090999;28;20036;-70
2023/04/21 12:49:50;;;;;;;7.07;2.42;;;18.80;99.90;;;;;;5090556;28;20066;-69
2023/04/21 12:52:15;;;;;;;12.45;3.35;;;18.70;99.90;;;;;;5091331;28;20055;-71